createdAt,value
2019-03-18T10:45:58.421Z,7.60
2019-03-18T11:16:16.068Z,8.00
2019-03-18T11:26:18.106Z,7.20
2019-03-18T11:36:19.403Z,7.10
2019-03-18T11:46:20.670Z,7.40
2019-03-18T11:56:22.682Z,8.00
2019-03-18T12:06:24.719Z,7.80
2019-03-18T12:16:25.994Z,7.80
2019-03-18T12:26:28.045Z,8.00
2019-03-18T12:36:29.349Z,8.00
2019-03-18T12:46:30.630Z,8.20
2019-03-18T12:56:31.912Z,7.90
2019-03-18T13:06:33.669Z,8.60
2019-03-18T13:16:34.510Z,7.90
2019-03-18T13:26:35.765Z,8.40
2019-03-18T13:36:37.804Z,8.70
2019-03-18T13:46:39.061Z,8.60
2019-03-18T13:56:40.332Z,8.70
2019-03-18T14:06:41.618Z,8.40
2019-03-18T14:16:42.914Z,8.10
2019-03-18T14:26:44.194Z,8.30
2019-03-18T14:36:45.490Z,8.30
2019-03-18T14:46:46.781Z,8.50
2019-03-18T14:56:48.057Z,8.30
2019-03-18T15:06:50.094Z,7.40
2019-03-18T15:16:51.364Z,7.40
2019-03-18T15:26:53.426Z,7.70
2019-03-18T15:36:54.692Z,7.70
2019-03-18T15:46:55.954Z,7.90
2019-03-18T15:56:57.228Z,7.70
2019-03-18T16:06:58.521Z,7.50
2019-03-18T16:17:02.360Z,7.50
2019-03-18T16:27:01.247Z,7.50
2019-03-18T16:37:02.534Z,7.30
2019-03-18T16:47:03.830Z,7.10
2019-03-18T16:57:05.090Z,6.90
2019-03-18T17:07:08.376Z,6.70
2019-03-18T17:17:09.675Z,6.60
2019-03-18T17:27:11.721Z,6.40
2019-03-18T17:37:12.966Z,6.40
2019-03-18T17:47:14.242Z,6.40
2019-03-18T17:57:15.545Z,6.40
2019-03-18T18:07:16.819Z,6.30
2019-03-18T18:17:18.105Z,6.20
2019-03-18T18:27:19.424Z,6.00
2019-03-18T18:37:20.681Z,5.80
2019-03-18T18:47:21.967Z,5.60
2019-03-18T18:57:24.017Z,5.40
2019-03-18T19:07:25.393Z,5.40
2019-03-18T19:17:26.649Z,5.40
2019-03-18T19:27:28.965Z,5.20
2019-03-18T19:37:30.238Z,5.10
2019-03-18T19:47:31.516Z,5.10
2019-03-18T19:57:32.836Z,5.00
2019-03-18T20:07:34.309Z,4.80
2019-03-18T20:17:35.591Z,4.80
2019-03-18T20:27:36.897Z,4.60
2019-03-18T20:37:38.174Z,4.60
2019-03-18T21:07:55.155Z,4.30
2019-03-18T21:17:57.214Z,4.20
2019-03-18T21:27:58.461Z,4.20
2019-03-18T21:38:00.344Z,4.00
2019-03-18T21:48:01.621Z,4.00
2019-03-18T21:58:02.894Z,3.70
2019-03-18T22:08:04.169Z,3.80
2019-03-18T22:18:06.210Z,3.70
2019-03-18T22:28:07.493Z,3.70
2019-03-18T22:38:08.772Z,3.70
2019-03-18T22:48:10.821Z,3.30
2019-03-18T22:58:12.074Z,3.30
2019-03-18T23:08:14.113Z,3.00
2019-03-18T23:18:15.402Z,3.00
2019-03-18T23:28:17.410Z,3.10
2019-03-18T23:38:18.709Z,3.20
2019-03-18T23:48:19.992Z,3.10
2019-03-18T23:58:21.274Z,2.90
